Newark, New York
Current Conditions -  °F | °C
As of 4:53 PM on Monday 20 Oct 2014 (Local Time) from KPEO Reporting Station
Broken Clouds Broken Clouds  
Wind Chill: 55°   Ceiling: 11000
Heat Index: 55°   Visibility: 10mi
Dew Point: 40°   Wind: 6mph
Humidity: 57%   Direction: 160°SSE
Pressure: 29.86"   Gusts: NA
Location:  43.05°N, 77.09°W
Report Text: KPEO 202053Z AUTO 16005KT 10SM SCT080 BKN110 13/04 A2986 RMK AO2 SLP114 T01280044 56008
Loading
Personal Weather Stations






























Interactive Weather Map
Tropical Storm Tracking
New forecast layout! Learn more

10-Day Weather Forecast

Advertisements
Track Severe Weather on mobile